createdAt,value
2023-03-23T15:58:24.467Z,21.99
2023-03-23T16:00:54.359Z,21.97
2023-03-23T16:03:27.665Z,21.95
2023-03-23T16:05:57.607Z,21.93
2023-03-23T16:08:26.250Z,21.92
2023-03-23T16:10:54.660Z,21.90
2023-03-23T16:13:26.700Z,21.88
2023-03-23T16:15:56.528Z,21.86
2023-03-23T16:18:24.888Z,21.82
2023-03-23T16:20:55.773Z,21.79
2023-03-23T16:23:24.278Z,21.74
2023-03-23T16:25:52.666Z,21.73
2023-03-23T16:28:21.192Z,21.70
2023-03-23T16:30:50.085Z,21.67
2023-03-23T16:33:20.079Z,21.65
2023-03-23T16:35:48.468Z,21.60
2023-03-23T16:38:18.724Z,21.57
2023-03-23T16:40:48.504Z,21.54
2023-03-23T16:43:16.941Z,21.49
2023-03-23T16:45:47.333Z,21.45
2023-03-23T16:48:17.674Z,21.41
2023-03-23T16:50:47.618Z,21.37
2023-03-23T16:53:16.313Z,21.34
2023-03-23T16:55:48.481Z,21.31
2023-03-23T16:58:18.167Z,21.27
2023-03-23T17:00:49.987Z,21.23
2023-03-23T17:03:19.707Z,21.17
2023-03-23T17:05:52.336Z,21.15
2023-03-23T17:08:22.021Z,21.12
2023-03-23T17:10:50.564Z,21.08
2023-03-23T17:13:19.037Z,21.03
2023-03-23T17:15:48.105Z,21.01
2023-03-23T17:18:17.140Z,20.96
2023-03-23T17:20:45.702Z,20.92
2023-03-23T17:23:17.144Z,20.89
2023-03-23T17:25:47.910Z,20.83
2023-03-23T17:28:18.116Z,20.77
2023-03-23T17:30:48.514Z,20.75
2023-03-23T17:33:17.138Z,20.68
2023-03-23T17:35:51.868Z,20.60
2023-03-23T17:38:21.956Z,20.51
2023-03-23T17:40:57.555Z,20.42
2023-03-23T17:43:25.831Z,20.34
2023-03-23T17:45:54.379Z,20.30
2023-03-23T17:48:23.360Z,20.24
2023-03-23T17:50:57.608Z,20.20
2023-03-23T17:53:27.938Z,20.16
2023-03-23T17:55:56.950Z,20.13
2023-03-23T17:58:26.479Z,20.10
2023-03-23T18:00:55.536Z,20.06
2023-03-23T18:03:24.983Z,20.04
2023-03-23T18:05:59.494Z,19.99
2023-03-23T18:08:29.859Z,19.98
2023-03-23T18:10:59.539Z,19.94
2023-03-23T18:13:35.134Z,19.90
2023-03-23T18:16:05.187Z,19.86
2023-03-23T18:18:34.126Z,19.83
2023-03-23T18:21:06.230Z,19.80
2023-03-23T18:23:45.942Z,19.77
2023-03-23T18:26:19.044Z,19.73
2023-03-23T18:28:47.430Z,19.69
2023-03-23T18:31:17.657Z,19.66
2023-03-23T18:33:49.516Z,19.63
2023-03-23T18:36:23.865Z,19.59
2023-03-23T18:38:57.435Z,19.58
2023-03-23T18:41:26.943Z,19.55
2023-03-23T18:43:57.504Z,19.54
2023-03-23T18:46:26.496Z,19.54
2023-03-23T18:48:57.577Z,19.51
2023-03-23T18:51:26.220Z,19.49
2023-03-23T18:53:55.935Z,19.47
2023-03-23T18:56:24.400Z,19.45
2023-03-23T18:58:54.291Z,19.45
2023-03-23T19:01:22.706Z,19.45
2023-03-23T19:03:51.113Z,19.44
2023-03-23T19:06:22.669Z,19.40
2023-03-23T19:08:53.490Z,19.40
2023-03-23T19:11:25.906Z,19.38
2023-03-23T19:14:02.622Z,19.37
2023-03-23T19:16:36.334Z,19.34
2023-03-23T19:19:07.794Z,19.32
2023-03-23T19:21:37.576Z,19.30
2023-03-23T19:24:07.574Z,19.28
2023-03-23T19:26:40.027Z,19.26
2023-03-23T19:31:44.809Z,19.23
2023-03-23T19:34:15.603Z,19.22
2023-03-23T19:36:50.269Z,19.20
2023-03-23T19:39:23.187Z,19.17
2023-03-23T19:41:52.967Z,19.15
2023-03-23T19:44:21.231Z,19.14
2023-03-23T19:46:49.957Z,19.13
2023-03-23T19:49:18.438Z,19.13
2023-03-23T19:51:46.783Z,19.07
2023-03-23T19:54:15.371Z,19.00
2023-03-23T19:56:44.214Z,18.98
2023-03-23T19:59:16.393Z,18.97
2023-03-23T20:01:45.507Z,18.94
2023-03-23T20:04:14.146Z,18.93
2023-03-23T20:06:42.473Z,18.88
2023-03-23T20:09:10.820Z,18.79
2023-03-23T20:11:39.098Z,18.78
2023-03-23T20:14:07.731Z,18.74
2023-03-23T20:16:37.417Z,18.75
2023-03-23T20:19:06.094Z,18.70
2023-03-23T20:21:34.548Z,18.65
2023-03-23T20:24:02.864Z,18.68
2023-03-23T20:26:35.965Z,18.65
2023-03-23T20:29:05.101Z,18.65
2023-03-23T20:31:37.602Z,18.61
2023-03-23T20:34:14.247Z,18.61
2023-03-23T20:36:45.339Z,18.60
2023-03-23T20:39:16.093Z,18.60
2023-03-23T20:41:44.548Z,18.62
2023-03-23T20:44:15.612Z,18.62
2023-03-23T20:46:46.943Z,18.60
2023-03-23T20:49:15.933Z,18.60
2023-03-23T20:51:44.814Z,18.62
2023-03-23T20:54:15.775Z,18.62
2023-03-23T20:56:44.803Z,18.63
2023-03-23T20:59:14.488Z,18.63
2023-03-23T21:01:43.762Z,18.62
2023-03-23T21:04:18.081Z,18.61
2023-03-23T21:06:49.722Z,18.61
2023-03-23T21:09:21.829Z,18.61
2023-03-23T21:11:50.607Z,18.60
2023-03-23T21:14:18.941Z,18.59
2023-03-23T21:16:47.386Z,18.56
2023-03-23T21:19:17.155Z,18.54
2023-03-23T21:21:55.332Z,18.51
2023-03-23T21:24:28.197Z,18.48
2023-03-23T21:26:59.517Z,18.46
2023-03-23T21:29:33.567Z,18.45
2023-03-23T21:32:08.290Z,18.43
2023-03-23T21:34:39.411Z,18.39
2023-03-23T21:37:07.995Z,18.38
2023-03-23T21:39:41.727Z,18.35
2023-03-23T21:42:13.623Z,18.31
2023-03-23T21:44:43.454Z,18.28
2023-03-23T21:47:12.783Z,18.21
2023-03-23T21:49:45.976Z,18.20
2023-03-23T21:52:14.286Z,18.18
2023-03-23T21:54:45.654Z,18.14
2023-03-23T21:57:13.951Z,18.09
2023-03-23T21:59:42.252Z,18.06
2023-03-23T22:02:14.089Z,18.01
2023-03-23T22:04:44.008Z,17.98
2023-03-23T22:07:12.852Z,17.95
2023-03-23T22:09:45.261Z,17.93
2023-03-23T22:12:14.185Z,17.90
2023-03-23T22:14:42.759Z,17.85
2023-03-23T22:17:11.821Z,17.82
2023-03-23T22:19:40.480Z,17.81
2023-03-23T22:22:10.551Z,17.78
2023-03-23T22:24:38.970Z,17.76
2023-03-23T22:27:07.762Z,17.71
2023-03-23T22:29:36.147Z,17.68
2023-03-23T22:32:04.818Z,17.66
2023-03-23T22:34:38.481Z,17.62
2023-03-23T22:37:08.364Z,17.59
2023-03-23T22:39:38.780Z,17.56
2023-03-23T22:42:07.330Z,17.52
2023-03-23T22:44:36.436Z,17.52
2023-03-23T22:47:04.936Z,17.49
2023-03-23T22:49:33.762Z,17.49
2023-03-23T22:52:02.181Z,17.46
2023-03-23T22:54:33.430Z,17.46
2023-03-23T22:57:03.275Z,17.44
2023-03-23T22:59:31.728Z,17.43
2023-03-23T23:02:00.139Z,17.41
2023-03-23T23:04:34.482Z,17.41
2023-03-23T23:07:12.539Z,17.43
2023-03-23T23:09:42.306Z,17.42
2023-03-23T23:12:17.292Z,17.39
2023-03-23T23:14:46.342Z,17.35
2023-03-23T23:17:17.564Z,17.33
2023-03-23T23:19:46.458Z,17.31
2023-03-23T23:22:19.380Z,17.29
2023-03-23T23:24:48.067Z,17.23
2023-03-23T23:27:18.079Z,17.16
2023-03-23T23:29:49.289Z,17.13
2023-03-23T23:32:20.701Z,17.08
2023-03-23T23:34:49.106Z,17.07
2023-03-23T23:37:17.639Z,17.05
2023-03-23T23:39:46.228Z,17.03
2023-03-23T23:42:14.680Z,17.00
2023-03-23T23:44:46.411Z,16.92
2023-03-23T23:47:15.410Z,16.91
2023-03-23T23:49:46.737Z,16.89
2023-03-23T23:52:15.659Z,16.89
2023-03-23T23:54:47.233Z,16.85
2023-03-23T23:57:16.816Z,16.85
2023-03-23T23:59:51.473Z,16.84
